Rechercher aéroport 
image banner adimage banner ad
image banner ad

LRSV - Suceava/Stefan Cel Mare - Suceava

Situé à Suceava, Romania

ICAO - LRSV, IATA - SCV

Données fournies par Airmate  

Information générale

Coordonnées: N47°41'11" E26°21'16"
Élévation : 1375 feet MSL.
Variation magnétique : 5° East
Voir autres Aéroports à Suceava

Données opérationnelles

Accessible au public
Heure actuelle UTC:
Heure actuelle locale:
Météo
METAR: LRSV 211730Z 19004KT CAVOK 03/M01 Q1014 R16/855094
TAF: TAF LRSV 211400Z 2115/2200 20006KT CAVOK
Voir NOTAMs / SUP AIP / TFR affectant cet aéroport [VIEW]
Fréquences de communication: [VIEW]

Pistes:

Identifiant RWYQFULongueur (ft)Largeur (ft)SurfaceLDA (ft)
16163°8071148ASPH8071
34343°8071148ASPH6693

Coordonnées de l'aéroport

Adresse: Suceava Romania

Vue satellite de LRSV